| time (UTC) | temp F | wind direction | speed MPH | gust MPH | rain 1hr in | rain 24hr in | rain mn in | humidity % | barometer mb |
| 20260906223717 | 100 | 150 | 4.0 | 8.0 | 0.00 | 0.00 | 0.00 | 37 | 1010.9 |
| 20260906223213 | 101 | 108 | 5.0 | 13.0 | 0.00 | 0.00 | 0.00 | 37 | 1011.1 |
| 20260906222711 | 100 | 148 | 8.0 | 15.0 | 0.00 | 0.00 | 0.00 | 37 | 1011.0 |
| 20260906222209 | 99 | 126 | 5.0 | 10.0 | 0.00 | 0.00 | 0.00 | 37 | 1011.1 |
| 20260906221708 | 100 | 355 | 9.0 | 18.0 | 0.00 | 0.00 | 0.00 | 37 | 1011.1 |
| 20260906221202 | 100 | 74 | 6.0 | 15.0 | 0.00 | 0.00 | 0.00 | 37 | 1011.2 |
| 20260906220657 | 100 | 146 | 9.0 | 15.0 | 0.00 | 0.00 | 0.00 | 37 | 1011.3 |
| 20260906220153 | 100 | 27 | 4.0 | 13.0 | 0.00 | 0.00 | 0.00 | 36 | 1011.2 |
| 20260906215652 | 100 | 65 | 8.0 | 10.0 | 0.00 | 0.00 | 0.00 | 36 | 1011.4 |
| 20260906215151 | 100 | 184 | 6.0 | 13.0 | 0.00 | 0.00 | 0.00 | 37 | 1011.3 |
| 20260906214649 | 100 | 157 | 9.0 | 15.0 | 0.00 | 0.00 | 0.00 | 37 | 1011.3 |
| 20260906214144 | 100 | 69 | 8.0 | 21.0 | 0.00 | 0.00 | 0.00 | 38 | 1011.5 |
| 20260906213643 | 100 | 141 | 6.0 | 18.0 | 0.00 | 0.00 | 0.00 | 37 | 1011.4 |
| 20260906213138 | 100 | 131 | 2.0 | 13.0 | 0.00 | 0.00 | 0.00 | 37 | 1011.6 |
| 20260906212635 | 101 | 81 | 12.0 | 15.0 | 0.00 | 0.00 | 0.00 | 36 | 1011.7 |
| 20260906212131 | 101 | 137 | 5.0 | 8.0 | 0.00 | 0.00 | 0.00 | 37 | 1011.6 |
| 20260906211631 | 100 | 337 | 3.0 | 10.0 | 0.00 | 0.00 | 0.00 | 38 | 1011.7 |
| 20260906211126 | 100 | 127 | 6.0 | 13.0 | 0.00 | 0.00 | 0.00 | 38 | 1011.8 |
| 20260906210622 | 99 | 47 | 4.0 | 10.0 | 0.00 | 0.00 | 0.00 | 38 | 1011.9 |
| 20260906210116 | 97 | 163 | 5.0 | 13.0 | 0.00 | 0.00 | 0.00 | 40 | 1011.9 |
| 20260906205612 | 98 | 55 | 11.0 | 15.0 | 0.00 | 0.00 | 0.00 | 39 | 1012.1 |
| 20260906205108 | 98 | 41 | 6.0 | 21.0 | 0.00 | 0.00 | 0.00 | 39 | 1012.0 |
| 20260906204607 | 101 | 104 | 7.0 | 18.0 | 0.00 | 0.00 | 0.00 | 38 | 1012.1 |
| 20260906204102 | 98 | 167 | 2.0 | 8.0 | 0.00 | 0.00 | 0.00 | 40 | 1012.2 |
| 20260906203601 | 97 | 158 | 8.0 | 18.0 | 0.00 | 0.00 | 0.00 | 41 | 1012.1 |
| 20260906203056 | 98 | 125 | 0.0 | 8.0 | 0.00 | 0.00 | 0.00 | 41 | 1012.2 |
| 20260906202553 | 99 | 75 | 5.0 | 18.0 | 0.00 | 0.00 | 0.00 | 38 | 1012.4 |
| 20260906202053 | 98 | 55 | 3.0 | 18.0 | 0.00 | 0.00 | 0.00 | 41 | 1012.3 |
| 20260906201554 | 99 | 56 | 4.0 | 21.0 | 0.00 | 0.00 | 0.00 | 39 | 1012.3 |
| 20260906201053 | 100 | 346 | 4.0 | 18.0 | 0.00 | 0.00 | 0.00 | 39 | 1012.3 |
| 20260906200549 | 100 | 138 | 4.0 | 10.0 | 0.00 | 0.00 | 0.00 | 38 | 1012.4 |
| 20260906200045 | 99 | 59 | 2.0 | 8.0 | 0.00 | 0.00 | 0.00 | 39 | 1012.6 |
| 20260906195540 | 99 | 119 | 4.0 | 13.0 | 0.00 | 0.00 | 0.00 | 40 | 1012.5 |
| 20260906195037 | 100 | 17 | 10.0 | 13.0 | 0.00 | 0.00 | 0.00 | 40 | 1012.6 |
| 20260906194532 | 100 | 337 | 8.0 | 18.0 | 0.00 | 0.00 | 0.00 | 40 | 1012.6 |
| 20260906194028 | 99 | 124 | 2.0 | 8.0 | 0.00 | 0.00 | 0.00 | 40 | 1012.8 |
| 20260906193527 | 97 | 78 | 6.0 | 18.0 | 0.00 | 0.00 | 0.00 | 41 | 1012.7 |
| 20260906193023 | 99 | 147 | 4.0 | 10.0 | 0.00 | 0.00 | 0.00 | 41 | 1012.9 |
| 20260906192518 | 98 | 120 | 6.0 | 15.0 | 0.00 | 0.00 | 0.00 | 41 | 1012.8 |
| 20260906192017 | 97 | 156 | 3.0 | 8.0 | 0.00 | 0.00 | 0.00 | 43 | 1012.8 |
| 20260906191512 | 98 | 181 | 0.0 | 13.0 | 0.00 | 0.00 | 0.00 | 42 | 1012.9 |
| 20260906191011 | 99 | 26 | 8.0 | 13.0 | 0.00 | 0.00 | 0.00 | 40 | 1013.2 |
| 20260906190511 | 99 | 96 | 6.0 | 18.0 | 0.00 | 0.00 | 0.00 | 40 | 1013.3 |
| 20260906190006 | 99 | 124 | 12.0 | 21.0 | 0.00 | 0.00 | 0.00 | 40 | 1013.1 |
| 20260906185505 | 98 | 65 | 6.0 | 10.0 | 0.00 | 0.00 | 0.00 | 41 | 1013.2 |
| 20260906185004 | 98 | 189 | 2.0 | 8.0 | 0.00 | 0.00 | 0.00 | 41 | 1013.2 |
| 20260906184459 | 98 | 210 | 6.0 | 10.0 | 0.00 | 0.00 | 0.00 | 42 | 1013.2 |
| 20260906183954 | 98 | 113 | 7.0 | 10.0 | 0.00 | 0.00 | 0.00 | 42 | 1013.3 |
| 20260906183451 | 98 | 126 | 5.0 | 13.0 | 0.00 | 0.00 | 0.00 | 42 | 1013.4 |
| 20260906182946 | 98 | 90 | 5.0 | 10.0 | 0.00 | 0.00 | 0.00 | 43 | 1013.5 |
| 20260906182441 | 98 | 32 | 1.0 | 13.0 | 0.00 | 0.00 | 0.00 | 43 | 1013.4 |
| 20260906181937 | 97 | 192 | 4.0 | 10.0 | 0.00 | 0.00 | 0.00 | 43 | 1013.6 |
| 20260906181433 | 97 | 130 | 2.0 | 13.0 | 0.00 | 0.00 | 0.00 | 44 | 1013.7 |
| 20260906180928 | 98 | 150 | 2.0 | 13.0 | 0.00 | 0.00 | 0.00 | 42 | 1013.8 |
| 20260906180423 | 98 | 123 | 7.0 | 10.0 | 0.00 | 0.00 | 0.00 | 44 | 1013.9 |
| 20260906175921 | 98 | 183 | 5.0 | 10.0 | 0.00 | 0.00 | 0.00 | 41 | 1013.9 |
| 20260906175416 | 97 | 77 | 1.0 | 13.0 | 0.00 | 0.00 | 0.00 | 44 | 1013.9 |
| 20260906174914 | 96 | 57 | 9.0 | 21.0 | 0.00 | 0.00 | 0.00 | 45 | 1014.1 |
| 20260906174408 | 96 | 66 | 11.0 | 15.0 | 0.00 | 0.00 | 0.00 | 45 | 1014.1 |
| 20260906173902 | 96 | 148 | 6.0 | 13.0 | 0.00 | 0.00 | 0.00 | 45 | 1014.2 |
| 20260906173358 | 96 | 131 | 5.0 | 8.0 | 0.00 | 0.00 | 0.00 | 45 | 1014.3 |
| 20260906172857 | 96 | 169 | 8.0 | 15.0 | 0.00 | 0.00 | 0.00 | 46 | 1014.6 |
| 20260906172354 | 96 | 122 | 6.0 | 10.0 | 0.00 | 0.00 | 0.00 | 46 | 1014.6 |
| 20260906171848 | 96 | 146 | 2.0 | 5.0 | 0.00 | 0.00 | 0.00 | 46 | 1014.7 |
| 20260906171343 | 96 | 44 | 3.0 | 8.0 | 0.00 | 0.00 | 0.00 | 47 | 1014.7 |
| 20260906170839 | 96 | 50 | 5.0 | 10.0 | 0.00 | 0.00 | 0.00 | 47 | 1014.8 |
| 20260906170335 | 96 | 154 | 1.0 | 8.0 | 0.00 | 0.00 | 0.00 | 47 | 1014.8 |
| 20260906165831 | 96 | 136 | 2.0 | 13.0 | 0.00 | 0.00 | 0.00 | 48 | 1015.0 |
| 20260906165330 | 96 | 81 | 0.0 | 10.0 | 0.00 | 0.00 | 0.00 | 48 | 1015.0 |
| 20260906164825 | 96 | 123 | 4.0 | 10.0 | 0.00 | 0.00 | 0.00 | 48 | 1015.0 |
| 20260906164325 | 95 | 124 | 6.0 | 15.0 | 0.00 | 0.00 | 0.00 | 47 | 1015.1 |
| 20260906163821 | 94 | 208 | 2.0 | 5.0 | 0.00 | 0.00 | 0.00 | 47 | 1014.9 |
| 20260906163317 | 95 | 156 | 5.0 | 18.0 | 0.00 | 0.00 | 0.00 | 47 | 1015.0 |
| 20260906162814 | 95 | 144 | 3.0 | 10.0 | 0.00 | 0.00 | 0.00 | 48 | 1015.1 |
| 20260906162308 | 93 | 71 | 2.0 | 10.0 | 0.00 | 0.00 | 0.00 | 51 | 1015.1 |
| 20260906161803 | 94 | 61 | 4.0 | 10.0 | 0.00 | 0.00 | 0.00 | 50 | 1014.9 |
| 20260906161302 | 94 | 172 | 4.0 | 5.0 | 0.00 | 0.00 | 0.00 | 51 | 1014.9 |
| 20260906160801 | 95 | 44 | 5.0 | 8.0 | 0.00 | 0.00 | 0.00 | 52 | 1015.1 |
| 20260906160255 | 93 | 168 | 0.0 | 5.0 | 0.00 | 0.00 | 0.00 | 53 | 1015.0 |
| 20260906155753 | 94 | 108 | 3.0 | 15.0 | 0.00 | 0.00 | 0.00 | 52 | 1014.9 |
| 20260906155248 | 94 | 147 | 2.0 | 8.0 | 0.00 | 0.00 | 0.00 | 52 | 1015.0 |
| 20260906154743 | 94 | 50 | 10.0 | 13.0 | 0.00 | 0.00 | 0.00 | 52 | 1014.9 |
| 20260906154239 | 93 | 38 | 4.0 | 10.0 | 0.00 | 0.00 | 0.00 | 54 | 1014.9 |
| 20260906153737 | 93 | 15 | 7.0 | 10.0 | 0.00 | 0.00 | 0.00 | 54 | 1015.0 |
| 20260906153231 | 93 | 156 | 4.0 | 10.0 | 0.00 | 0.00 | 0.00 | 54 | 1015.2 |
| 20260906152727 | 92 | 65 | 3.0 | 5.0 | 0.00 | 0.00 | 0.00 | 56 | 1014.9 |
| 20260906152221 | 92 | 151 | 0.0 | 2.0 | 0.00 | 0.00 | 0.00 | 55 | 1014.6 |
| 20260906151721 | 92 | 157 | 0.0 | 8.0 | 0.00 | 0.00 | 0.00 | 57 | 1014.8 |
| 20260906151217 | 91 | 139 | 0.0 | 5.0 | 0.00 | 0.00 | 0.00 | 58 | 1014.7 |
| 20260906150712 | 91 | 82 | 0.0 | 5.0 | 0.00 | 0.00 | 0.00 | 57 | 1014.6 |
| 20260906150207 | 92 | 106 | 1.0 | 2.0 | 0.00 | 0.00 | 0.00 | 57 | 1014.7 |
| 20260906145706 | 89 | 147 | 0.0 | 5.0 | 0.00 | 0.00 | 0.00 | 60 | 1014.7 |
| 20260906145206 | 90 | 70 | 4.0 | 8.0 | 0.00 | 0.00 | 0.00 | 60 | 1014.6 |
| 20260906144700 | 89 | 173 | 2.0 | 5.0 | 0.00 | 0.00 | 0.00 | 61 | 1014.5 |
| 20260906144155 | 89 | 190 | 3.0 | 8.0 | 0.00 | 0.00 | 0.00 | 62 | 1014.4 |
| 20260906143655 | 87 | 156 | 2.0 | 5.0 | 0.00 | 0.00 | 0.00 | 64 | 1014.6 |
| 20260906143152 | 87 | 134 | 5.0 | 8.0 | 0.00 | 0.00 | 0.00 | 64 | 1014.6 |
| 20260906142646 | 89 | 151 | 0.0 | 8.0 | 0.00 | 0.00 | 0.00 | 62 | 1014.6 |
| 20260906142141 | 88 | 162 | 2.0 | 5.0 | 0.00 | 0.00 | 0.00 | 62 | 1014.8 |
| 20260906141640 | 88 | 134 | 2.0 | 2.0 | 0.00 | 0.00 | 0.00 | 63 | 1014.6 |
| 20260906141135 | 87 | 165 | 1.0 | 8.0 | 0.00 | 0.00 | 0.00 | 65 | 1014.8 |
| 20260906140634 | 88 | 151 | 1.0 | 2.0 | 0.00 | 0.00 | 0.00 | 64 | 1014.4 |
| 20260906140129 | 87 | 156 | 0.0 | 5.0 | 0.00 | 0.00 | 0.00 | 66 | 1014.6 |
| 20260906135626 | 87 | 181 | 1.0 | 5.0 | 0.00 | 0.00 | 0.00 | 65 | 1014.6 |
| 20260906135122 | 86 | 146 | 0.0 | 0.0 | 0.00 | 0.00 | 0.00 | 66 | 1014.6 |
| 20260906134618 | 86 | 159 | 1.0 | 2.0 | 0.00 | 0.00 | 0.00 | 67 | 1014.5 |
| 20260906134113 | 85 | 154 | 0.0 | 2.0 | 0.00 | 0.00 | 0.00 | 69 | 1014.6 |
| 20260906133609 | 84 | 151 | 0.0 | 5.0 | 0.00 | 0.00 | 0.00 | 70 | 1014.5 |
| 20260906133103 | 84 | 37 | 2.0 | 10.0 | 0.00 | 0.00 | 0.00 | 70 | 1014.4 |
| 20260906132558 | 83 | 128 | 0.0 | 2.0 | 0.00 | 0.00 | 0.00 | 71 | 1014.4 |
| 20260906132054 | 84 | 46 | 0.0 | 2.0 | 0.00 | 0.00 | 0.00 | 71 | 1014.4 |
| 20260906131549 | 83 | 83 | 2.0 | 2.0 | 0.00 | 0.00 | 0.00 | 71 | 1014.5 |
| 20260906131044 | 83 | 140 | 0.0 | 0.0 | 0.00 | 0.00 | 0.00 | 72 | 1014.5 |
| 20260906130543 | 82 | 102 | 0.0 | 0.0 | 0.00 | 0.00 | 0.00 | 73 | 1014.5 |
| 20260906130039 | 82 | 124 | 2.0 | 5.0 | 0.00 | 0.00 | 0.00 | 74 | 1014.4 |
| 20260906125536 | 81 | 162 | 0.0 | 2.0 | 0.00 | 0.00 | 0.00 | 75 | 1014.4 |
| 20260906125030 | 80 | 144 | 0.0 | 0.0 | 0.00 | 0.00 | 0.00 | 78 | 1014.4 |
| 20260906124526 | 78 | 148 | 0.0 | 0.0 | 0.00 | 0.00 | 0.00 | 80 | 1014.4 |
| 20260906124021 | 78 | 168 | 0.0 | 0.0 | 0.00 | 0.00 | 0.00 | 81 | 1014.4 |
| 20260906123519 | 77 | 172 | 0.0 | 0.0 | 0.00 | 0.00 | 0.00 | 81 | 1014.3 |
| 20260906123015 | 77 | 145 | 0.0 | 0.0 | 0.00 | 0.00 | 0.00 | 83 | 1014.2 |
| 20260906122509 | 76 | 158 | 0.0 | 0.0 | 0.00 | 0.00 | 0.00 | 84 | 1014.2 |
| 20260906122005 | 76 | 157 | 0.0 | 0.0 | 0.00 | 0.00 | 0.00 | 84 | 1013.9 |
| 20260906121501 | 76 | 186 | 0.0 | 0.0 | 0.00 | 0.00 | 0.00 | 84 | 1014.2 |
| 20260906120957 | 76 | 168 | 0.0 | 0.0 | 0.00 | 0.00 | 0.00 | 84 | 1013.9 |
| 20260906120452 | 76 | 168 | 0.0 | 0.0 | 0.00 | 0.00 | 0.00 | 84 | 1013.8 |
| 20260906115949 | 76 | 176 | 0.0 | 0.0 | 0.00 | 0.00 | 0.00 | 83 | 1013.7 |
| 20260906115444 | 77 | 178 | 0.0 | 2.0 | 0.00 | 0.00 | 0.00 | 82 | 1013.9 |
| 20260906114944 | 77 | 212 | 0.0 | 0.0 | 0.00 | 0.00 | 0.00 | 81 | 1013.8 |
| 20260906114438 | 78 | 147 | 0.0 | 0.0 | 0.00 | 0.00 | 0.00 | 81 | 1013.5 |
| 20260906113934 | 78 | 150 | 0.0 | 0.0 | 0.00 | 0.00 | 0.00 | 81 | 1013.4 |
| 20260906113432 | 78 | 174 | 0.0 | 2.0 | 0.00 | 0.00 | 0.00 | 80 | 1013.4 |
| 20260906112928 | 78 | 149 | 0.0 | 2.0 | 0.00 | 0.00 | 0.00 | 81 | 1013.4 |
| 20260906112424 | 77 | 172 | 2.0 | 5.0 | 0.00 | 0.00 | 0.00 | 81 | 1013.5 |
| 20260906111919 | 77 | 163 | 0.0 | 0.0 | 0.00 | 0.00 | 0.00 | 82 | 1013.4 |
| 20260906111418 | 77 | 142 | 0.0 | 0.0 | 0.00 | 0.00 | 0.00 | 82 | 1013.4 |
| 20260906110914 | 77 | 168 | 0.0 | 0.0 | 0.00 | 0.00 | 0.00 | 82 | 1013.2 |
| 20260906110409 | 77 | 166 | 0.0 | 0.0 | 0.00 | 0.00 | 0.00 | 83 | 1013.3 |
| 20260906105908 | 77 | 122 | 0.0 | 0.0 | 0.00 | 0.00 | 0.00 | 83 | 1013.3 |
| 20260906105404 | 77 | 122 | 0.0 | 0.0 | 0.00 | 0.00 | 0.00 | 83 | 1013.4 |
| 20260906104859 | 77 | 128 | 0.0 | 0.0 | 0.00 | 0.00 | 0.00 | 83 | 1013.2 |
| 20260906104358 | 76 | 128 | 0.0 | 0.0 | 0.00 | 0.00 | 0.00 | 83 | 1012.9 |
| 20260906103857 | 76 | 128 | 0.0 | 0.0 | 0.00 | 0.00 | 0.00 | 83 | 1013.0 |
| 20260906103355 | 77 | 128 | 0.0 | 0.0 | 0.00 | 0.00 | 0.00 | 82 | 1013.1 |
| 20260906102852 | 77 | 128 | 0.0 | 0.0 | 0.00 | 0.00 | 0.00 | 82 | 1013.4 |
| 20260906102350 | 77 | 128 | 0.0 | 0.0 | 0.00 | 0.00 | 0.00 | 81 | 1013.1 |
| 20260906101845 | 77 | 128 | 0.0 | 0.0 | 0.00 | 0.00 | 0.00 | 81 | 1013.3 |
| 20260906101341 | 78 | 128 | 0.0 | 0.0 | 0.00 | 0.00 | 0.00 | 81 | 1013.2 |
| 20260906100836 | 78 | 128 | 0.0 | 0.0 | 0.00 | 0.00 | 0.00 | 80 | 1013.4 |
| 20260906100335 | 78 | 128 | 1.0 | 2.0 | 0.00 | 0.00 | 0.00 | 79 | 1013.1 |
| 20260906095830 | 78 | 181 | 0.0 | 0.0 | 0.00 | 0.00 | 0.00 | 78 | 1013.0 |
| 20260906095326 | 79 | 178 | 0.0 | 0.0 | 0.00 | 0.00 | 0.00 | 78 | 1012.7 |
| 20260906094825 | 79 | 154 | 0.0 | 2.0 | 0.00 | 0.00 | 0.00 | 77 | 1012.9 |
| 20260906094320 | 79 | 152 | 0.0 | 0.0 | 0.00 | 0.00 | 0.00 | 77 | 1012.7 |
| 20260906093818 | 80 | 215 | 2.0 | 5.0 | 0.00 | 0.00 | 0.00 | 77 | 1012.6 |
| 20260906093313 | 80 | 110 | 0.0 | 2.0 | 0.00 | 0.00 | 0.00 | 77 | 1012.6 |
| 20260906092807 | 80 | 159 | 0.0 | 5.0 | 0.00 | 0.00 | 0.00 | 76 | 1012.6 |
| 20260906092301 | 80 | 132 | 4.0 | 8.0 | 0.00 | 0.00 | 0.00 | 76 | 1012.4 |
| 20260906091757 | 80 | 135 | 4.0 | 5.0 | 0.00 | 0.00 | 0.00 | 76 | 1012.5 |
| 20260906091253 | 80 | 140 | 3.0 | 8.0 | 0.00 | 0.00 | 0.00 | 76 | 1012.4 |
| 20260906090749 | 80 | 111 | 0.0 | 5.0 | 0.00 | 0.00 | 0.00 | 76 | 1012.5 |
| 20260906090248 | 80 | 159 | 3.0 | 10.0 | 0.00 | 0.00 | 0.00 | 76 | 1012.3 |
| 20260906085748 | 80 | 164 | 2.0 | 10.0 | 0.00 | 0.00 | 0.00 | 76 | 1012.4 |
| 20260906085247 | 80 | 130 | 5.0 | 8.0 | 0.00 | 0.00 | 0.00 | 76 | 1012.6 |
| 20260906084742 | 80 | 131 | 0.0 | 10.0 | 0.00 | 0.00 | 0.00 | 76 | 1012.6 |
| 20260906084242 | 80 | 98 | 6.0 | 8.0 | 0.00 | 0.00 | 0.00 | 76 | 1012.4 |
| 20260906083737 | 80 | 150 | 0.0 | 8.0 | 0.00 | 0.00 | 0.00 | 76 | 1012.4 |
| 20260906083232 | 80 | 166 | 0.0 | 5.0 | 0.00 | 0.00 | 0.00 | 76 | 1012.3 |
| 20260906082727 | 80 | 157 | 0.0 | 2.0 | 0.00 | 0.00 | 0.00 | 76 | 1012.4 |
| 20260906082222 | 80 | 159 | 2.0 | 10.0 | 0.00 | 0.00 | 0.00 | 76 | 1012.3 |
| 20260906081718 | 80 | 127 | 0.0 | 5.0 | 0.00 | 0.00 | 0.00 | 76 | 1012.6 |
| 20260906081213 | 81 | 139 | 0.0 | 2.0 | 0.00 | 0.00 | 0.00 | 76 | 1012.5 |
| 20260906080710 | 81 | 130 | 1.0 | 2.0 | 0.00 | 0.00 | 0.00 | 75 | 1012.8 |
| 20260906080206 | 81 | 139 | 0.0 | 5.0 | 0.00 | 0.00 | 0.00 | 75 | 1012.9 |
| 20260906075706 | 81 | 154 | 0.0 | 0.0 | 0.00 | 0.00 | 0.00 | 75 | 1012.8 |
| 20260906075200 | 81 | 113 | 0.0 | 5.0 | 0.00 | 0.00 | 0.00 | 75 | 1012.8 |
| 20260906074655 | 81 | 145 | 2.0 | 5.0 | 0.00 | 0.00 | 0.00 | 75 | 1012.9 |
| 20260906074154 | 81 | 139 | 2.0 | 8.0 | 0.00 | 0.00 | 0.00 | 74 | 1013.1 |
| 20260906073650 | 81 | 124 | 1.0 | 2.0 | 0.00 | 0.00 | 0.00 | 74 | 1013.0 |
| 20260906073145 | 81 | 169 | 0.0 | 0.0 | 0.00 | 0.00 | 0.00 | 74 | 1013.0 |
| 20260906072640 | 81 | 144 | 0.0 | 0.0 | 0.00 | 0.00 | 0.00 | 74 | 1012.8 |
| 20260906072136 | 82 | 174 | 0.0 | 2.0 | 0.00 | 0.00 | 0.00 | 74 | 1012.8 |
| 20260906071632 | 82 | 166 | 2.0 | 2.0 | 0.00 | 0.00 | 0.00 | 74 | 1012.8 |
| 20260906071132 | 81 | 137 | 0.0 | 2.0 | 0.00 | 0.00 | 0.00 | 74 | 1012.9 |
| 20260906070628 | 82 | 160 | 0.0 | 0.0 | 0.00 | 0.00 | 0.00 | 74 | 1012.9 |
| 20260906070124 | 82 | 207 | 1.0 | 2.0 | 0.00 | 0.00 | 0.00 | 73 | 1012.7 |
| 20260906065623 | 82 | 197 | 2.0 | 5.0 | 0.00 | 0.00 | 0.00 | 73 | 1012.9 |
| 20260906065119 | 82 | 157 | 0.0 | 2.0 | 0.00 | 0.00 | 0.00 | 72 | 1012.8 |
| 20260906064614 | 82 | 138 | 0.0 | 5.0 | 0.00 | 0.00 | 0.00 | 72 | 1012.8 |
| 20260906064109 | 82 | 149 | 0.0 | 5.0 | 0.00 | 0.00 | 0.00 | 72 | 1012.9 |
| 20260906063604 | 82 | 127 | 0.0 | 2.0 | 0.00 | 0.00 | 0.00 | 72 | 1013.1 |
| 20260906063101 | 82 | 134 | 1.0 | 2.0 | 0.00 | 0.00 | 0.00 | 71 | 1013.1 |
| 20260906062556 | 83 | 166 | 0.0 | 2.0 | 0.00 | 0.00 | 0.00 | 71 | 1013.0 |
| 20260906062055 | 83 | 197 | 0.0 | 2.0 | 0.00 | 0.00 | 0.00 | 70 | 1013.0 |
| 20260906061552 | 83 | 156 | 1.0 | 2.0 | 0.00 | 0.00 | 0.00 | 70 | 1013.1 |
| 20260906061050 | 83 | 147 | 0.0 | 5.0 | 0.00 | 0.00 | 0.00 | 69 | 1013.1 |
| 20260906060547 | 83 | 148 | 0.0 | 2.0 | 0.00 | 0.00 | 0.00 | 70 | 1013.0 |
| 20260906060044 | 83 | 165 | 0.0 | 5.0 | 0.00 | 0.00 | 0.00 | 69 | 1013.2 |
| 20260906055540 | 84 | 152 | 0.0 | 2.0 | 0.00 | 0.00 | 0.00 | 69 | 1013.0 |
| 20260906055035 | 84 | 171 | 0.0 | 2.0 | 0.00 | 0.00 | 0.00 | 69 | 1013.1 |
| 20260906054535 | 84 | 137 | 1.0 | 5.0 | 0.00 | 0.00 | 0.00 | 68 | 1013.1 |
| 20260906054030 | 84 | 146 | 2.0 | 5.0 | 0.00 | 0.00 | 0.00 | 68 | 1013.1 |
| 20260906053527 | 84 | 228 | 0.0 | 0.0 | 0.00 | 0.00 | 0.00 | 68 | 1013.2 |
| 20260906053022 | 84 | 114 | 0.0 | 5.0 | 0.00 | 0.00 | 0.00 | 68 | 1013.2 |
| 20260906052518 | 85 | 209 | 0.0 | 2.0 | 0.00 | 0.00 | 0.00 | 67 | 1013.4 |
| 20260906052015 | 85 | 171 | 2.0 | 5.0 | 0.00 | 0.00 | 0.00 | 67 | 1013.3 |
| 20260906051510 | 85 | 164 | 1.0 | 5.0 | 0.00 | 0.00 | 0.00 | 67 | 1013.2 |
| 20260906051005 | 85 | 140 | 1.0 | 8.0 | 0.00 | 0.00 | 0.00 | 67 | 1013.2 |
| 20260906050500 | 85 | 102 | 2.0 | 5.0 | 0.00 | 0.00 | 0.00 | 67 | 1013.1 |
| 20260906045959 | 85 | 149 | 1.0 | 8.0 | 0.00 | 0.00 | 0.00 | 67 | 1013.1 |
| 20260906045458 | 85 | 142 | 2.0 | 2.0 | 0.00 | 0.00 | 0.00 | 66 | 1013.0 |
| 20260906044954 | 85 | 138 | 1.0 | 10.0 | 0.00 | 0.00 | 0.00 | 66 | 1013.2 |
| 20260906044449 | 86 | 124 | 2.0 | 2.0 | 0.00 | 0.00 | 0.00 | 66 | 1013.1 |
| 20260906043945 | 86 | 215 | 2.0 | 5.0 | 0.00 | 0.00 | 0.00 | 66 | 1013.0 |
| 20260906043441 | 86 | 196 | 2.0 | 10.0 | 0.00 | 0.00 | 0.00 | 65 | 1013.0 |
| 20260906042936 | 86 | 149 | 3.0 | 10.0 | 0.00 | 0.00 | 0.00 | 65 | 1012.8 |
| 20260906042435 | 86 | 159 | 9.0 | 10.0 | 0.00 | 0.00 | 0.00 | 65 | 1012.8 |
| 20260906041930 | 86 | 110 | 6.0 | 10.0 | 0.00 | 0.00 | 0.00 | 64 | 1012.9 |
| 20260906041426 | 87 | 131 | 3.0 | 8.0 | 0.00 | 0.00 | 0.00 | 64 | 1013.0 |
| 20260906040920 | 87 | 141 | 6.0 | 15.0 | 0.00 | 0.00 | 0.00 | 64 | 1012.9 |
| 20260906040415 | 87 | 180 | 7.0 | 10.0 | 0.00 | 0.00 | 0.00 | 63 | 1012.9 |
| 20260906035910 | 87 | 173 | 10.0 | 13.0 | 0.00 | 0.00 | 0.00 | 63 | 1012.9 |
| 20260906035401 | 87 | 149 | 5.0 | 10.0 | 0.00 | 0.00 | 0.00 | 63 | 1012.9 |
| 20260906034855 | 87 | 177 | 0.0 | 5.0 | 0.00 | 0.00 | 0.00 | 63 | 1012.9 |
| 20260906034350 | 87 | 195 | 4.0 | 8.0 | 0.00 | 0.00 | 0.00 | 62 | 1012.9 |
| 20260906033846 | 87 | 203 | 3.0 | 8.0 | 0.00 | 0.00 | 0.00 | 62 | 1012.9 |
| 20260906033345 | 88 | 166 | 9.0 | 13.0 | 0.00 | 0.00 | 0.00 | 61 | 1013.1 |
| 20260906032842 | 88 | 111 | 3.0 | 10.0 | 0.00 | 0.00 | 0.00 | 61 | 1012.8 |
| 20260906032337 | 88 | 153 | 0.0 | 5.0 | 0.00 | 0.00 | 0.00 | 60 | 1013.1 |
| 20260906031832 | 88 | 177 | 1.0 | 5.0 | 0.00 | 0.00 | 0.00 | 59 | 1013.0 |
| 20260906031328 | 88 | 104 | 2.0 | 5.0 | 0.00 | 0.00 | 0.00 | 59 | 1012.8 |
| 20260906030828 | 88 | 116 | 2.0 | 5.0 | 0.00 | 0.00 | 0.00 | 59 | 1013.0 |
| 20260906030323 | 89 | 157 | 0.0 | 5.0 | 0.00 | 0.00 | 0.00 | 58 | 1012.9 |
| 20260906025822 | 89 | 158 | 4.0 | 5.0 | 0.00 | 0.00 | 0.00 | 57 | 1012.9 |
| 20260906025317 | 89 | 171 | 11.0 | 13.0 | 0.00 | 0.00 | 0.00 | 57 | 1012.8 |
| 20260906024816 | 89 | 109 | 2.0 | 8.0 | 0.00 | 0.00 | 0.00 | 56 | 1012.6 |
| 20260906024310 | 89 | 130 | 4.0 | 8.0 | 0.00 | 0.00 | 0.00 | 56 | 1012.6 |
| 20260906023805 | 89 | 134 | 6.0 | 13.0 | 0.00 | 0.00 | 0.00 | 55 | 1012.4 |
| 20260906023301 | 89 | 161 | 6.0 | 8.0 | 0.00 | 0.00 | 0.00 | 55 | 1012.4 |
| 20260906022756 | 90 | 167 | 4.0 | 10.0 | 0.00 | 0.00 | 0.00 | 55 | 1012.3 |
| 20260906022251 | 90 | 198 | 7.0 | 13.0 | 0.00 | 0.00 | 0.00 | 54 | 1012.3 |
| 20260906021747 | 90 | 147 | 4.0 | 10.0 | 0.00 | 0.00 | 0.00 | 54 | 1012.2 |
| 20260906021246 | 90 | 163 | 8.0 | 10.0 | 0.00 | 0.00 | 0.00 | 53 | 1012.2 |
| 20260906020741 | 91 | 80 | 4.0 | 15.0 | 0.00 | 0.00 | 0.00 | 53 | 1012.0 |
| 20260906020235 | 91 | 153 | 6.0 | 13.0 | 0.00 | 0.00 | 0.00 | 52 | 1012.1 |
| 20260906015730 | 91 | 172 | 15.0 | 23.0 | 0.00 | 0.00 | 0.00 | 51 | 1011.9 |
| 20260906015228 | 92 | 155 | 13.0 | 18.0 | 0.00 | 0.00 | 0.00 | 50 | 1012.0 |
| 20260906014723 | 93 | 201 | 7.0 | 18.0 | 0.00 | 0.00 | 0.00 | 46 | 1011.5 |
| 20260906014219 | 94 | 168 | 2.0 | 8.0 | 0.00 | 0.00 | 0.00 | 45 | 1011.6 |
| 20260906013715 | 94 | 175 | 2.0 | 10.0 | 0.00 | 0.00 | 0.00 | 45 | 1011.5 |
| 20260906013214 | 94 | 199 | 6.0 | 8.0 | 0.00 | 0.00 | 0.00 | 44 | 1011.3 |
| 20260906012709 | 94 | 162 | 4.0 | 8.0 | 0.00 | 0.00 | 0.00 | 44 | 1011.2 |
| 20260906012204 | 94 | 164 | 8.0 | 13.0 | 0.00 | 0.00 | 0.00 | 43 | 1011.2 |
| 20260906011659 | 94 | 124 | 10.0 | 13.0 | 0.00 | 0.00 | 0.00 | 42 | 1011.2 |
| 20260906011153 | 95 | 143 | 1.0 | 5.0 | 0.00 | 0.00 | 0.00 | 42 | 1011.0 |
| 20260906010649 | 95 | 142 | 2.0 | 2.0 | 0.00 | 0.00 | 0.00 | 41 | 1011.1 |
| 20260906010146 | 95 | 105 | 5.0 | 8.0 | 0.00 | 0.00 | 0.00 | 41 | 1011.1 |
| 20260906005645 | 95 | 101 | 2.0 | 8.0 | 0.00 | 0.00 | 0.00 | 40 | 1011.0 |
| 20260906005144 | 95 | 134 | 5.0 | 10.0 | 0.00 | 0.00 | 0.00 | 40 | 1011.1 |
| 20260906004644 | 96 | 159 | 5.0 | 8.0 | 0.00 | 0.00 | 0.00 | 40 | 1011.0 |
| 20260906004139 | 96 | 107 | 4.0 | 5.0 | 0.00 | 0.00 | 0.00 | 40 | 1011.1 |
| 20260906003634 | 96 | 149 | 3.0 | 5.0 | 0.00 | 0.00 | 0.00 | 39 | 1010.9 |
| 20260906003130 | 97 | 122 | 1.0 | 5.0 | 0.00 | 0.00 | 0.00 | 38 | 1011.0 |
| 20260906002625 | 97 | 148 | 4.0 | 5.0 | 0.00 | 0.00 | 0.00 | 38 | 1011.1 |
| 20260906002119 | 97 | 158 | 3.0 | 8.0 | 0.00 | 0.00 | 0.00 | 38 | 1011.0 |
| 20260906001615 | 97 | 158 | 2.0 | 8.0 | 0.00 | 0.00 | 0.00 | 39 | 1011.0 |
| 20260906001109 | 97 | 169 | 4.0 | 5.0 | 0.00 | 0.00 | 0.00 | 39 | 1010.9 |
| 20260906000605 | 97 | 140 | 5.0 | 8.0 | 0.00 | 0.00 | 0.00 | 39 | 1010.7 |
| 20260906000100 | 97 | 82 | 4.0 | 8.0 | 0.00 | 0.00 | 0.00 | 39 | 1010.9 |
| 20260905235559 | 97 | 161 | 6.0 | 8.0 | 0.00 | 0.00 | 0.00 | 39 | 1010.9 |
| 20260905235054 | 97 | 123 | 6.0 | 10.0 | 0.00 | 0.00 | 0.00 | 38 | 1010.9 |
| 20260905234550 | 98 | 157 | 2.0 | 5.0 | 0.00 | 0.00 | 0.00 | 38 | 1010.8 |
| 20260905234045 | 98 | 125 | 4.0 | 8.0 | 0.00 | 0.00 | 0.00 | 38 | 1010.8 |
| 20260905233545 | 99 | 149 | 5.0 | 8.0 | 0.00 | 0.00 | 0.00 | 38 | 1010.7 |
| 20260905233045 | 99 | 146 | 0.0 | 10.0 | 0.00 | 0.00 | 0.00 | 38 | 1010.9 |
| 20260905232540 | 99 | 213 | 1.0 | 8.0 | 0.00 | 0.00 | 0.00 | 37 | 1010.8 |
| 20260905232036 | 99 | 190 | 0.0 | 5.0 | 0.00 | 0.00 | 0.00 | 37 | 1010.8 |
| 20260905231531 | 99 | 87 | 2.0 | 2.0 | 0.00 | 0.00 | 0.00 | 37 | 1010.8 |
| 20260905231027 | 99 | 143 | 4.0 | 13.0 | 0.00 | 0.00 | 0.00 | 36 | 1010.7 |
| 20260905230526 | 99 | 154 | 5.0 | 13.0 | 0.00 | 0.00 | 0.00 | 37 | 1010.8 |
| 20260905230025 | 99 | 199 | 0.0 | 5.0 | 0.00 | 0.00 | 0.00 | 37 | 1010.7 |
| 20260905225519 | 100 | 141 | 6.0 | 10.0 | 0.00 | 0.00 | 0.00 | 36 | 1010.7 |
| 20260905225015 | 99 | 124 | 5.0 | 8.0 | 0.00 | 0.00 | 0.00 | 36 | 1010.7 |
| 20260905224514 | 100 | 140 | 3.0 | 10.0 | 0.00 | 0.00 | 0.00 | 35 | 1010.7 |
| 20260905224014 | 100 | 76 | 4.0 | 10.0 | 0.00 | 0.00 | 0.00 | 36 | 1010.8 |